sensor_id;sensor_type;location;lat;lon;timestamp;pressure;altitude;pressure_sealevel;temperature;humidity
39051;BME280;24805;55.852;37.644;2022-10-18T00:04:16;99969.34;;;9.81;65.55
39051;BME280;24805;55.852;37.644;2022-10-18T00:09:18;99956.59;;;9.84;65.54
39051;BME280;24805;55.852;37.644;2022-10-18T00:14:20;99953.47;;;9.89;65.58
39051;BME280;24805;55.852;37.644;2022-10-18T00:19:22;99949.66;;;9.91;65.47
39051;BME280;24805;55.852;37.644;2022-10-18T00:24:29;99929.81;;;9.95;65.27
39051;BME280;24805;55.852;37.644;2022-10-18T00:29:31;99925.00;;;9.99;65.43
39051;BME280;24805;55.852;37.644;2022-10-18T00:34:32;99922.00;;;10.02;65.33
39051;BME280;24805;55.852;37.644;2022-10-18T00:39:34;99917.22;;;10.06;65.30
39051;BME280;24805;55.852;37.644;2022-10-18T00:49:43;99898.16;;;10.02;64.91
39051;BME280;24805;55.852;37.644;2022-10-18T00:54:47;99896.34;;;9.94;65.13
39051;BME280;24805;55.852;37.644;2022-10-18T00:59:50;99891.22;;;9.93;64.60
39051;BME280;24805;55.852;37.644;2022-10-18T01:04:52;99880.75;;;9.91;64.29
39051;BME280;24805;55.852;37.644;2022-10-18T01:15:09;99888.88;;;9.74;64.22
39051;BME280;24805;55.852;37.644;2022-10-18T01:25:39;99880.72;;;9.59;64.22
39051;BME280;24805;55.852;37.644;2022-10-18T01:31:05;99892.63;;;9.55;64.59
39051;BME280;24805;55.852;37.644;2022-10-18T01:36:14;99867.13;;;9.54;64.74
39051;BME280;24805;55.852;37.644;2022-10-18T01:41:20;99868.47;;;9.58;65.11
39051;BME280;24805;55.852;37.644;2022-10-18T01:46:23;99867.13;;;9.62;64.90
39051;BME280;24805;55.852;37.644;2022-10-18T01:51:26;99860.84;;;9.63;64.97
39051;BME280;24805;55.852;37.644;2022-10-18T02:02:34;99847.13;;;9.67;64.95
39051;BME280;24805;55.852;37.644;2022-10-18T02:07:13;99851.25;;;9.70;64.93
39051;BME280;24805;55.852;37.644;2022-10-18T02:12:17;99839.50;;;9.73;64.68
39051;BME280;24805;55.852;37.644;2022-10-18T02:17:20;99836.53;;;9.76;64.43
39051;BME280;24805;55.852;37.644;2022-10-18T02:22:26;99835.03;;;9.81;64.63
39051;BME280;24805;55.852;37.644;2022-10-18T02:27:28;99832.22;;;9.83;64.40
39051;BME280;24805;55.852;37.644;2022-10-18T02:32:33;99825.25;;;9.82;64.21
39051;BME280;24805;55.852;37.644;2022-10-18T02:37:37;99811.03;;;9.83;64.24
39051;BME280;24805;55.852;37.644;2022-10-18T02:42:46;99802.25;;;9.82;64.12
39051;BME280;24805;55.852;37.644;2022-10-18T02:47:49;99802.91;;;9.84;64.04
39051;BME280;24805;55.852;37.644;2022-10-18T02:52:51;99779.38;;;9.81;64.09
39051;BME280;24805;55.852;37.644;2022-10-18T02:57:53;99785.03;;;9.78;63.82
39051;BME280;24805;55.852;37.644;2022-10-18T03:02:55;99770.97;;;9.78;63.79
39051;BME280;24805;55.852;37.644;2022-10-18T03:07:57;99774.59;;;9.77;63.79
39051;BME280;24805;55.852;37.644;2022-10-18T03:12:59;99761.84;;;9.72;63.77
39051;BME280;24805;55.852;37.644;2022-10-18T03:18:01;99751.25;;;9.72;63.60
39051;BME280;24805;55.852;37.644;2022-10-18T03:23:02;99747.13;;;9.70;63.76
39051;BME280;24805;55.852;37.644;2022-10-18T03:28:05;99727.25;;;9.65;63.75
39051;BME280;24805;55.852;37.644;2022-10-18T03:33:07;99724.25;;;9.60;63.81
39051;BME280;24805;55.852;37.644;2022-10-18T03:38:09;99715.50;;;9.52;63.77
39051;BME280;24805;55.852;37.644;2022-10-18T03:43:10;99688.03;;;9.37;63.49
39051;BME280;24805;55.852;37.644;2022-10-18T03:48:12;99682.56;;;9.38;63.70
39051;BME280;24805;55.852;37.644;2022-10-18T03:53:14;99682.75;;;9.37;63.88
39051;BME280;24805;55.852;37.644;2022-10-18T03:58:16;99682.75;;;9.37;64.14
39051;BME280;24805;55.852;37.644;2022-10-18T04:03:19;99670.34;;;9.37;63.76
39051;BME280;24805;55.852;37.644;2022-10-18T04:08:21;99668.84;;;9.35;63.83
39051;BME280;24805;55.852;37.644;2022-10-18T04:13:24;99666.69;;;9.38;63.49
39051;BME280;24805;55.852;37.644;2022-10-18T04:18:26;99647.13;;;9.47;63.72
39051;BME280;24805;55.852;37.644;2022-10-18T04:23:28;99643.50;;;9.56;63.83
39051;BME280;24805;55.852;37.644;2022-10-18T04:28:35;99639.00;;;9.65;63.61
39051;BME280;24805;55.852;37.644;2022-10-18T04:33:40;99643.47;;;9.73;63.66
39051;BME280;24805;55.852;37.644;2022-10-18T04:38:42;99636.84;;;9.77;63.50
39051;BME280;24805;55.852;37.644;2022-10-18T04:43:44;99622.09;;;9.74;63.66
39051;BME280;24805;55.852;37.644;2022-10-18T04:48:51;99617.41;;;9.84;63.40
39051;BME280;24805;55.852;37.644;2022-10-18T04:53:53;99614.25;;;9.97;63.01
39051;BME280;24805;55.852;37.644;2022-10-18T04:58:56;99612.03;;;10.09;63.10
39051;BME280;24805;55.852;37.644;2022-10-18T05:03:58;99599.06;;;10.22;62.80
39051;BME280;24805;55.852;37.644;2022-10-18T05:09:00;99603.66;;;10.36;62.86
39051;BME280;24805;55.852;37.644;2022-10-18T05:14:02;99615.69;;;10.47;62.35
39051;BME280;24805;55.852;37.644;2022-10-18T05:19:04;99600.75;;;10.54;62.58
39051;BME280;24805;55.852;37.644;2022-10-18T05:24:08;99616.31;;;10.57;62.39
39051;BME280;24805;55.852;37.644;2022-10-18T05:29:10;99620.63;;;10.58;62.10
39051;BME280;24805;55.852;37.644;2022-10-18T05:34:12;99615.75;;;10.61;62.16
39051;BME280;24805;55.852;37.644;2022-10-18T05:39:14;99625.38;;;10.62;61.88
39051;BME280;24805;55.852;37.644;2022-10-18T05:44:16;99619.63;;;10.59;62.02
39051;BME280;24805;55.852;37.644;2022-10-18T05:49:18;99610.34;;;10.55;61.79
39051;BME280;24805;55.852;37.644;2022-10-18T05:54:20;99610.19;;;10.56;61.79
39051;BME280;24805;55.852;37.644;2022-10-18T05:59:22;99605.41;;;10.52;61.38
39051;BME280;24805;55.852;37.644;2022-10-18T06:04:24;99605.75;;;10.49;61.96
39051;BME280;24805;55.852;37.644;2022-10-18T06:09:26;99592.78;;;10.54;61.50
39051;BME280;24805;55.852;37.644;2022-10-18T06:14:29;99576.97;;;10.60;61.49
39051;BME280;24805;55.852;37.644;2022-10-18T06:19:31;99568.00;;;10.61;61.30
39051;BME280;24805;55.852;37.644;2022-10-18T06:24:33;99556.13;;;10.57;61.55
39051;BME280;24805;55.852;37.644;2022-10-18T06:29:36;99543.38;;;10.53;61.27
39051;BME280;24805;55.852;37.644;2022-10-18T06:34:38;99519.84;;;10.50;61.33
39051;BME280;24805;55.852;37.644;2022-10-18T06:39:40;99505.47;;;10.44;61.96
39051;BME280;24805;55.852;37.644;2022-10-18T06:44:42;99467.13;;;10.32;61.30
39051;BME280;24805;55.852;37.644;2022-10-18T06:49:44;99447.34;;;10.12;62.56
39051;BME280;24805;55.852;37.644;2022-10-18T06:54:46;99414.34;;;9.91;62.37
39051;BME280;24805;55.852;37.644;2022-10-18T06:59:48;99432.47;;;9.80;62.79
39051;BME280;24805;55.852;37.644;2022-10-18T07:04:50;99394.13;;;9.67;63.81
39051;BME280;24805;55.852;37.644;2022-10-18T07:09:52;99396.34;;;9.56;64.44
39051;BME280;24805;55.852;37.644;2022-10-18T07:14:54;99374.91;;;9.43;65.15
39051;BME280;24805;55.852;37.644;2022-10-18T07:19:56;99354.72;;;9.42;65.77
39051;BME280;24805;55.852;37.644;2022-10-18T07:24:58;99339.13;;;9.47;65.86
39051;BME280;24805;55.852;37.644;2022-10-18T07:30:00;99326.69;;;9.55;66.23
39051;BME280;24805;55.852;37.644;2022-10-18T07:35:04;99311.25;;;9.59;67.40
39051;BME280;24805;55.852;37.644;2022-10-18T07:40:06;99260.28;;;9.57;69.36
39051;BME280;24805;55.852;37.644;2022-10-18T07:45:08;99224.66;;;9.59;70.12
39051;BME280;24805;55.852;37.644;2022-10-18T07:50:11;99193.44;;;9.55;70.16
39051;BME280;24805;55.852;37.644;2022-10-18T07:55:13;99178.09;;;9.65;70.90
39051;BME280;24805;55.852;37.644;2022-10-18T08:00:15;99163.13;;;9.57;71.77
39051;BME280;24805;55.852;37.644;2022-10-18T08:05:17;99135.19;;;9.55;71.48
39051;BME280;24805;55.852;37.644;2022-10-18T08:10:19;99123.13;;;9.52;72.24
39051;BME280;24805;55.852;37.644;2022-10-18T08:15:22;99090.22;;;9.47;72.66
39051;BME280;24805;55.852;37.644;2022-10-18T08:20:26;99053.34;;;9.45;73.05
39051;BME280;24805;55.852;37.644;2022-10-18T08:25:31;98988.69;;;9.40;72.74
39051;BME280;24805;55.852;37.644;2022-10-18T08:30:34;98983.50;;;9.31;73.66
39051;BME280;24805;55.852;37.644;2022-10-18T08:35:36;98944.34;;;9.27;74.28
39051;BME280;24805;55.852;37.644;2022-10-18T08:40:42;98913.88;;;9.16;74.87
39051;BME280;24805;55.852;37.644;2022-10-18T08:45:44;98888.75;;;9.27;74.69
39051;BME280;24805;55.852;37.644;2022-10-18T08:50:47;98860.38;;;9.21;74.90
39051;BME280;24805;55.852;37.644;2022-10-18T08:55:50;98861.09;;;9.29;74.72
39051;BME280;24805;55.852;37.644;2022-10-18T09:01:37;98896.84;;;9.40;74.45
39051;BME280;24805;55.852;37.644;2022-10-18T09:06:21;98891.94;;;9.37;74.70
39051;BME280;24805;55.852;37.644;2022-10-18T09:21:54;98894.06;;;9.63;74.78
39051;BME280;24805;55.852;37.644;2022-10-18T09:27:03;98864.09;;;9.77;74.67
39051;BME280;24805;55.852;37.644;2022-10-18T09:32:16;98848.50;;;9.89;74.79
39051;BME280;24805;55.852;37.644;2022-10-18T09:37:21;98823.94;;;10.01;74.10
39051;BME280;24805;55.852;37.644;2022-10-18T09:42:28;98825.09;;;10.14;74.09
39051;BME280;24805;55.852;37.644;2022-10-18T09:47:40;98807.03;;;10.24;74.29
39051;BME280;24805;55.852;37.644;2022-10-18T09:52:48;98791.63;;;10.34;73.83
39051;BME280;24805;55.852;37.644;2022-10-18T09:57:52;98772.88;;;10.42;74.26
39051;BME280;24805;55.852;37.644;2022-10-18T10:02:57;98759.63;;;10.42;74.95
39051;BME280;24805;55.852;37.644;2022-10-18T10:08:01;98747.47;;;10.54;74.83
39051;BME280;24805;55.852;37.644;2022-10-18T10:18:07;98720.78;;;10.62;75.06
39051;BME280;24805;55.852;37.644;2022-10-18T10:23:37;98711.22;;;10.68;75.06
39051;BME280;24805;55.852;37.644;2022-10-18T10:28:44;98710.84;;;10.71;74.14
39051;BME280;24805;55.852;37.644;2022-10-18T10:34:00;98700.03;;;10.73;73.90
39051;BME280;24805;55.852;37.644;2022-10-18T10:39:03;98685.34;;;10.77;75.23
39051;BME280;24805;55.852;37.644;2022-10-18T10:44:19;98680.88;;;10.77;74.47
39051;BME280;24805;55.852;37.644;2022-10-18T10:49:22;98678.41;;;10.82;74.45
39051;BME280;24805;55.852;37.644;2022-10-18T10:54:42;98663.72;;;10.86;74.25
39051;BME280;24805;55.852;37.644;2022-10-18T10:59:52;98652.13;;;10.94;75.15
39051;BME280;24805;55.852;37.644;2022-10-18T11:04:54;98643.13;;;11.01;74.36
39051;BME280;24805;55.852;37.644;2022-10-18T11:20:15;98628.47;;;11.25;75.37
39051;BME280;24805;55.852;37.644;2022-10-18T11:25:19;98642.78;;;11.37;76.37
39051;BME280;24805;55.852;37.644;2022-10-18T11:30:36;98640.34;;;11.49;77.40
39051;BME280;24805;55.852;37.644;2022-10-18T11:40:54;98629.69;;;11.76;77.66
39051;BME280;24805;55.852;37.644;2022-10-18T11:46:35;98630.72;;;11.94;77.69
39051;BME280;24805;55.852;37.644;2022-10-18T11:51:44;98618.81;;;12.17;78.20
39051;BME280;24805;55.852;37.644;2022-10-18T12:07:46;98628.22;;;12.64;78.23
39051;BME280;24805;55.852;37.644;2022-10-18T12:12:51;98623.25;;;12.74;78.31
39051;BME280;24805;55.852;37.644;2022-10-18T12:17:59;98625.88;;;12.81;78.03
39051;BME280;24805;55.852;37.644;2022-10-18T12:23:50;98624.59;;;12.90;78.48
39051;BME280;24805;55.852;37.644;2022-10-18T12:33:43;98630.19;;;13.13;77.82
39051;BME280;24805;55.852;37.644;2022-10-18T12:38:48;98634.25;;;13.22;78.31
39051;BME280;24805;55.852;37.644;2022-10-18T12:43:53;98620.44;;;13.32;77.63
39051;BME280;24805;55.852;37.644;2022-10-18T12:49:01;98622.81;;;13.40;78.12
39051;BME280;24805;55.852;37.644;2022-10-18T13:09:31;98630.25;;;13.81;77.66
39051;BME280;24805;55.852;37.644;2022-10-18T13:25:28;98639.19;;;14.11;77.40
39051;BME280;24805;55.852;37.644;2022-10-18T13:30:50;98645.78;;;14.09;77.67
39051;BME280;24805;55.852;37.644;2022-10-18T13:35:55;98637.34;;;14.12;77.37
39051;BME280;24805;55.852;37.644;2022-10-18T13:46:03;98651.28;;;14.14;76.52
39051;BME280;24805;55.852;37.644;2022-10-18T13:56:23;98662.75;;;14.14;75.74
39051;BME280;24805;55.852;37.644;2022-10-18T14:06:53;98677.06;;;14.20;76.13
39051;BME280;24805;55.852;37.644;2022-10-18T14:12:13;98677.06;;;14.20;75.89
39051;BME280;24805;55.852;37.644;2022-10-18T14:22:20;98678.47;;;14.23;75.48
39051;BME280;24805;55.852;37.644;2022-10-18T14:27:27;98694.91;;;14.20;75.49
39051;BME280;24805;55.852;37.644;2022-10-18T14:32:30;98678.69;;;14.21;75.54
39051;BME280;24805;55.852;37.644;2022-10-18T14:37:33;98690.47;;;14.13;75.04
39051;BME280;24805;55.852;37.644;2022-10-18T14:42:36;98702.84;;;14.08;75.27
39051;BME280;24805;55.852;37.644;2022-10-18T14:47:38;98700.59;;;14.05;75.12
39051;BME280;24805;55.852;37.644;2022-10-18T14:52:40;98705.50;;;14.08;75.28
39051;BME280;24805;55.852;37.644;2022-10-18T14:57:42;98704.31;;;14.04;74.96
39051;BME280;24805;55.852;37.644;2022-10-18T15:02:44;98716.22;;;14.01;75.30
39051;BME280;24805;55.852;37.644;2022-10-18T15:07:46;98730.09;;;14.10;74.80
39051;BME280;24805;55.852;37.644;2022-10-18T15:12:49;98726.78;;;14.14;73.61
39051;BME280;24805;55.852;37.644;2022-10-18T15:18:18;98743.66;;;14.08;73.40
39051;BME280;24805;55.852;37.644;2022-10-18T15:23:22;98749.25;;;14.00;71.57
39051;BME280;24805;55.852;37.644;2022-10-18T15:28:31;98770.66;;;13.94;71.79
39051;BME280;24805;55.852;37.644;2022-10-18T15:33:36;98778.91;;;13.86;73.48
39051;BME280;24805;55.852;37.644;2022-10-18T15:38:38;98792.13;;;13.74;72.80
39051;BME280;24805;55.852;37.644;2022-10-18T15:43:40;98795.22;;;13.71;72.47
39051;BME280;24805;55.852;37.644;2022-10-18T15:48:42;98817.81;;;13.62;72.86
39051;BME280;24805;55.852;37.644;2022-10-18T15:53:51;98817.22;;;13.60;73.46
39051;BME280;24805;55.852;37.644;2022-10-18T15:58:53;98816.25;;;13.54;73.85
39051;BME280;24805;55.852;37.644;2022-10-18T16:03:58;98820.03;;;13.33;71.81
39051;BME280;24805;55.852;37.644;2022-10-18T16:09:01;98842.19;;;13.21;70.81
39051;BME280;24805;55.852;37.644;2022-10-18T16:14:03;98815.81;;;13.06;71.93
39051;BME280;24805;55.852;37.644;2022-10-18T16:19:05;98811.16;;;12.82;69.27
39051;BME280;24805;55.852;37.644;2022-10-18T16:24:08;98829.44;;;12.65;69.89
39051;BME280;24805;55.852;37.644;2022-10-18T16:29:11;98845.00;;;12.48;72.19
39051;BME280;24805;55.852;37.644;2022-10-18T16:34:14;98856.88;;;12.32;69.49
39051;BME280;24805;55.852;37.644;2022-10-18T16:39:16;98866.09;;;12.36;70.68
39051;BME280;24805;55.852;37.644;2022-10-18T16:44:18;98871.81;;;12.40;70.52
39051;BME280;24805;55.852;37.644;2022-10-18T16:49:21;98896.97;;;12.44;72.09
39051;BME280;24805;55.852;37.644;2022-10-18T16:54:25;98903.13;;;12.51;71.90
39051;BME280;24805;55.852;37.644;2022-10-18T16:59:27;98902.69;;;12.61;71.76
39051;BME280;24805;55.852;37.644;2022-10-18T17:04:30;98910.50;;;12.56;69.42
39051;BME280;24805;55.852;37.644;2022-10-18T17:09:32;98925.03;;;12.53;70.61
39051;BME280;24805;55.852;37.644;2022-10-18T17:14:35;98926.66;;;12.48;71.03
39051;BME280;24805;55.852;37.644;2022-10-18T17:19:37;98906.19;;;12.35;70.77
39051;BME280;24805;55.852;37.644;2022-10-18T17:24:39;98912.09;;;12.24;72.33
39051;BME280;24805;55.852;37.644;2022-10-18T17:29:42;98894.69;;;12.08;71.88
39051;BME280;24805;55.852;37.644;2022-10-18T17:34:44;98924.56;;;11.97;70.65
39051;BME280;24805;55.852;37.644;2022-10-18T17:39:46;98924.31;;;11.92;70.66
39051;BME280;24805;55.852;37.644;2022-10-18T17:44:48;98912.69;;;11.93;70.98
39051;BME280;24805;55.852;37.644;2022-10-18T17:49:53;98923.91;;;11.88;69.51
39051;BME280;24805;55.852;37.644;2022-10-18T17:54:55;98927.38;;;11.89;71.50
39051;BME280;24805;55.852;37.644;2022-10-18T17:59:57;98943.31;;;11.89;70.90
39051;BME280;24805;55.852;37.644;2022-10-18T18:05:00;98943.13;;;11.90;72.44
39051;BME280;24805;55.852;37.644;2022-10-18T18:10:03;98946.81;;;11.89;72.05
39051;BME280;24805;55.852;37.644;2022-10-18T18:15:05;98943.31;;;11.89;71.42
39051;BME280;24805;55.852;37.644;2022-10-18T18:20:07;98943.69;;;11.79;68.57
39051;BME280;24805;55.852;37.644;2022-10-18T18:25:09;98931.78;;;11.68;70.37
39051;BME280;24805;55.852;37.644;2022-10-18T18:30:13;98947.25;;;11.52;72.19
39051;BME280;24805;55.852;37.644;2022-10-18T18:35:18;98935.91;;;11.30;71.88
39051;BME280;24805;55.852;37.644;2022-10-18T18:40:20;98932.25;;;11.03;69.93
39051;BME280;24805;55.852;37.644;2022-10-18T18:45:24;98941.97;;;10.89;70.87
39051;BME280;24805;55.852;37.644;2022-10-18T18:50:26;98933.28;;;10.74;71.43
39051;BME280;24805;55.852;37.644;2022-10-18T18:55:30;98929.50;;;10.62;71.24
39051;BME280;24805;55.852;37.644;2022-10-18T19:00:32;98915.59;;;10.53;71.95
39051;BME280;24805;55.852;37.644;2022-10-18T19:05:34;98944.25;;;10.43;71.53
39051;BME280;24805;55.852;37.644;2022-10-18T19:10:36;98947.03;;;10.35;71.70
39051;BME280;24805;55.852;37.644;2022-10-18T19:15:38;98946.59;;;10.31;71.96
39051;BME280;24805;55.852;37.644;2022-10-18T19:20:40;98956.81;;;10.34;71.96
39051;BME280;24805;55.852;37.644;2022-10-18T19:25:45;98967.47;;;10.41;71.36
39051;BME280;24805;55.852;37.644;2022-10-18T19:30:46;98965.34;;;10.51;72.00
39051;BME280;24805;55.852;37.644;2022-10-18T19:35:51;98951.13;;;10.59;72.16
39051;BME280;24805;55.852;37.644;2022-10-18T19:40:53;98940.53;;;10.59;71.33
39051;BME280;24805;55.852;37.644;2022-10-18T19:45:55;98943.75;;;10.54;71.28
39051;BME280;24805;55.852;37.644;2022-10-18T19:51:01;98944.06;;;10.45;71.96
39051;BME280;24805;55.852;37.644;2022-10-18T19:56:06;98947.22;;;10.33;71.88
39051;BME280;24805;55.852;37.644;2022-10-18T20:01:08;98943.06;;;10.24;71.82
39051;BME280;24805;55.852;37.644;2022-10-18T20:06:12;98942.00;;;10.19;71.78
39051;BME280;24805;55.852;37.644;2022-10-18T20:11:18;98951.56;;;10.20;71.94
39051;BME280;24805;55.852;37.644;2022-10-18T20:16:21;98939.84;;;10.29;72.41
39051;BME280;24805;55.852;37.644;2022-10-18T20:21:29;98925.22;;;10.40;72.79
39051;BME280;24805;55.852;37.644;2022-10-18T20:26:32;98904.00;;;10.33;72.07
39051;BME280;24805;55.852;37.644;2022-10-18T20:31:35;98923.81;;;10.37;72.21
39051;BME280;24805;55.852;37.644;2022-10-18T20:36:39;98911.19;;;10.39;72.06
39051;BME280;24805;55.852;37.644;2022-10-18T20:41:41;98905.16;;;10.52;71.90
39051;BME280;24805;55.852;37.644;2022-10-18T20:46:43;98896.00;;;10.54;72.45
39051;BME280;24805;55.852;37.644;2022-10-18T20:51:45;98905.34;;;10.50;72.51
39051;BME280;24805;55.852;37.644;2022-10-18T20:56:47;98929.84;;;10.52;72.57
39051;BME280;24805;55.852;37.644;2022-10-18T21:01:49;98923.38;;;10.61;72.83
39051;BME280;24805;55.852;37.644;2022-10-18T21:06:51;98917.00;;;10.77;72.47
39051;BME280;24805;55.852;37.644;2022-10-18T21:11:53;98924.03;;;10.91;73.16
39051;BME280;24805;55.852;37.644;2022-10-18T21:16:56;98911.22;;;11.01;73.34
39051;BME280;24805;55.852;37.644;2022-10-18T21:21:58;98910.63;;;11.06;73.04
39051;BME280;24805;55.852;37.644;2022-10-18T21:27:00;98902.88;;;11.04;72.58
39051;BME280;24805;55.852;37.644;2022-10-18T21:32:02;98897.75;;;11.03;72.14
39051;BME280;24805;55.852;37.644;2022-10-18T21:37:04;98896.72;;;11.04;72.42
39051;BME280;24805;55.852;37.644;2022-10-18T21:42:06;98892.69;;;11.08;71.70
39051;BME280;24805;55.852;37.644;2022-10-18T21:47:09;98885.97;;;11.12;71.82
39051;BME280;24805;55.852;37.644;2022-10-18T21:52:11;98891.31;;;11.19;72.11
39051;BME280;24805;55.852;37.644;2022-10-18T21:57:13;98887.84;;;11.25;72.02
39051;BME280;24805;55.852;37.644;2022-10-18T22:02:15;98878.50;;;11.29;72.00
39051;BME280;24805;55.852;37.644;2022-10-18T22:07:17;98875.25;;;11.33;72.01
39051;BME280;24805;55.852;37.644;2022-10-18T22:12:19;98886.91;;;11.39;72.43
39051;BME280;24805;55.852;37.644;2022-10-18T22:17:20;98884.47;;;11.44;72.20
39051;BME280;24805;55.852;37.644;2022-10-18T22:22:24;98876.72;;;11.49;72.06
39051;BME280;24805;55.852;37.644;2022-10-18T22:27:28;98871.84;;;11.53;71.96
39051;BME280;24805;55.852;37.644;2022-10-18T22:32:30;98859.00;;;11.56;72.48
39051;BME280;24805;55.852;37.644;2022-10-18T22:37:32;98861.44;;;11.58;71.67
39051;BME280;24805;55.852;37.644;2022-10-18T22:42:35;98862.28;;;11.58;71.94
39051;BME280;24805;55.852;37.644;2022-10-18T22:47:37;98868.19;;;11.60;71.79
39051;BME280;24805;55.852;37.644;2022-10-18T22:52:39;98863.09;;;11.59;71.48
39051;BME280;24805;55.852;37.644;2022-10-18T22:57:41;98845.50;;;11.58;72.33
39051;BME280;24805;55.852;37.644;2022-10-18T23:02:43;98823.25;;;11.59;71.51
39051;BME280;24805;55.852;37.644;2022-10-18T23:07:48;98812.00;;;11.57;72.37
39051;BME280;24805;55.852;37.644;2022-10-18T23:12:50;98800.34;;;11.58;71.94
39051;BME280;24805;55.852;37.644;2022-10-18T23:17:52;98803.41;;;11.61;71.71
39051;BME280;24805;55.852;37.644;2022-10-18T23:22:55;98802.19;;;11.64;71.86
39051;BME280;24805;55.852;37.644;2022-10-18T23:27:57;98787.88;;;11.65;71.61
39051;BME280;24805;55.852;37.644;2022-10-18T23:32:59;98779.91;;;11.65;71.60
39051;BME280;24805;55.852;37.644;2022-10-18T23:38:02;98768.03;;;11.61;72.32
39051;BME280;24805;55.852;37.644;2022-10-18T23:43:04;98771.94;;;11.58;73.13
39051;BME280;24805;55.852;37.644;2022-10-18T23:48:06;98772.53;;;11.54;72.72
39051;BME280;24805;55.852;37.644;2022-10-18T23:53:09;98766.19;;;11.48;73.13
39051;BME280;24805;55.852;37.644;2022-10-18T23:58:11;98759.84;;;11.43;73.00
